sensor_id;sensor_type;location;lat;lon;timestamp;temperature;humidity
22544;DHT22;11438;52.044;8.716;2023-02-19T00:00:51;13.50;99.90
22544;DHT22;11438;52.044;8.716;2023-02-19T00:03:16;13.50;99.90
22544;DHT22;11438;52.044;8.716;2023-02-19T00:05:42;13.50;99.90
22544;DHT22;11438;52.044;8.716;2023-02-19T00:08:07;13.50;99.90
22544;DHT22;11438;52.044;8.716;2023-02-19T00:10:33;13.50;99.90
22544;DHT22;11438;52.044;8.716;2023-02-19T00:12:58;13.40;99.90
22544;DHT22;11438;52.044;8.716;2023-02-19T00:15:24;13.50;99.90
22544;DHT22;11438;52.044;8.716;2023-02-19T00:17:49;13.50;99.90
22544;DHT22;11438;52.044;8.716;2023-02-19T00:20:15;13.50;99.90
22544;DHT22;11438;52.044;8.716;2023-02-19T00:22:40;13.50;99.90
22544;DHT22;11438;52.044;8.716;2023-02-19T00:25:06;13.50;99.90
22544;DHT22;11438;52.044;8.716;2023-02-19T00:27:32;13.40;99.90
22544;DHT22;11438;52.044;8.716;2023-02-19T00:29:57;13.40;99.90
22544;DHT22;11438;52.044;8.716;2023-02-19T00:32:23;13.40;99.90
22544;DHT22;11438;52.044;8.716;2023-02-19T00:34:48;13.40;99.90
22544;DHT22;11438;52.044;8.716;2023-02-19T00:37:14;13.40;99.90
22544;DHT22;11438;52.044;8.716;2023-02-19T00:39:39;13.40;99.90
22544;DHT22;11438;52.044;8.716;2023-02-19T00:42:05;13.40;99.90
22544;DHT22;11438;52.044;8.716;2023-02-19T00:44:30;13.40;99.90
22544;DHT22;11438;52.044;8.716;2023-02-19T00:46:56;13.40;99.90
22544;DHT22;11438;52.044;8.716;2023-02-19T00:49:22;13.30;99.90
22544;DHT22;11438;52.044;8.716;2023-02-19T00:51:49;13.30;99.90
22544;DHT22;11438;52.044;8.716;2023-02-19T00:54:15;13.40;99.90
22544;DHT22;11438;52.044;8.716;2023-02-19T00:56:40;13.40;99.90
22544;DHT22;11438;52.044;8.716;2023-02-19T00:59:06;13.40;99.90
22544;DHT22;11438;52.044;8.716;2023-02-19T01:01:32;13.30;99.90
22544;DHT22;11438;52.044;8.716;2023-02-19T01:03:57;13.40;99.90
22544;DHT22;11438;52.044;8.716;2023-02-19T01:06:23;13.40;99.90
22544;DHT22;11438;52.044;8.716;2023-02-19T01:08:49;13.40;99.90
22544;DHT22;11438;52.044;8.716;2023-02-19T01:11:15;13.40;99.90
22544;DHT22;11438;52.044;8.716;2023-02-19T01:13:41;13.30;99.90
22544;DHT22;11438;52.044;8.716;2023-02-19T01:16:19;13.30;99.90
22544;DHT22;11438;52.044;8.716;2023-02-19T01:18:45;13.30;99.90
22544;DHT22;11438;52.044;8.716;2023-02-19T01:21:16;13.40;99.90
22544;DHT22;11438;52.044;8.716;2023-02-19T01:23:42;13.30;99.90
22544;DHT22;11438;52.044;8.716;2023-02-19T01:26:11;13.30;99.90
22544;DHT22;11438;52.044;8.716;2023-02-19T01:28:37;13.30;99.90
22544;DHT22;11438;52.044;8.716;2023-02-19T01:31:04;13.30;99.90
22544;DHT22;11438;52.044;8.716;2023-02-19T01:33:31;13.30;99.90
22544;DHT22;11438;52.044;8.716;2023-02-19T01:35:57;13.30;99.90
22544;DHT22;11438;52.044;8.716;2023-02-19T01:38:22;13.30;99.90
22544;DHT22;11438;52.044;8.716;2023-02-19T01:41:02;13.30;99.90
22544;DHT22;11438;52.044;8.716;2023-02-19T01:43:28;13.30;99.90
22544;DHT22;11438;52.044;8.716;2023-02-19T01:45:55;13.30;99.90
22544;DHT22;11438;52.044;8.716;2023-02-19T01:48:28;13.30;99.90
22544;DHT22;11438;52.044;8.716;2023-02-19T01:53:36;13.20;99.90
22544;DHT22;11438;52.044;8.716;2023-02-19T01:56:04;13.20;99.90
22544;DHT22;11438;52.044;8.716;2023-02-19T01:58:33;13.30;99.90
22544;DHT22;11438;52.044;8.716;2023-02-19T02:01:02;13.20;99.90
22544;DHT22;11438;52.044;8.716;2023-02-19T02:03:29;13.20;99.90
22544;DHT22;11438;52.044;8.716;2023-02-19T02:06:00;13.20;99.90
22544;DHT22;11438;52.044;8.716;2023-02-19T02:08:26;13.20;99.90
22544;DHT22;11438;52.044;8.716;2023-02-19T02:11:11;13.20;99.90
22544;DHT22;11438;52.044;8.716;2023-02-19T02:13:37;13.20;99.90
22544;DHT22;11438;52.044;8.716;2023-02-19T02:16:20;13.20;99.90
22544;DHT22;11438;52.044;8.716;2023-02-19T02:19:01;13.20;99.90
22544;DHT22;11438;52.044;8.716;2023-02-19T02:24:08;13.30;99.90
22544;DHT22;11438;52.044;8.716;2023-02-19T02:26:51;13.30;99.90
22544;DHT22;11438;52.044;8.716;2023-02-19T02:32:12;13.30;99.90
22544;DHT22;11438;52.044;8.716;2023-02-19T02:34:55;13.30;99.90
22544;DHT22;11438;52.044;8.716;2023-02-19T02:37:23;13.30;99.90
22544;DHT22;11438;52.044;8.716;2023-02-19T02:39:50;13.30;99.90
22544;DHT22;11438;52.044;8.716;2023-02-19T02:42:16;13.30;99.90
22544;DHT22;11438;52.044;8.716;2023-02-19T02:44:57;13.30;99.90
22544;DHT22;11438;52.044;8.716;2023-02-19T02:47:56;13.20;99.90
22544;DHT22;11438;52.044;8.716;2023-02-19T02:50:33;13.20;99.90
22544;DHT22;11438;52.044;8.716;2023-02-19T02:53:04;13.20;99.90
22544;DHT22;11438;52.044;8.716;2023-02-19T02:55:51;13.20;99.90
22544;DHT22;11438;52.044;8.716;2023-02-19T02:58:19;13.20;99.90
22544;DHT22;11438;52.044;8.716;2023-02-19T03:00:53;13.20;99.90
22544;DHT22;11438;52.044;8.716;2023-02-19T03:03:38;13.20;99.90
22544;DHT22;11438;52.044;8.716;2023-02-19T03:06:06;13.20;99.90
22544;DHT22;11438;52.044;8.716;2023-02-19T03:09:11;13.20;99.90
22544;DHT22;11438;52.044;8.716;2023-02-19T03:11:41;13.20;99.90
22544;DHT22;11438;52.044;8.716;2023-02-19T03:14:35;13.30;99.90
22544;DHT22;11438;52.044;8.716;2023-02-19T03:17:28;13.30;99.90
22544;DHT22;11438;52.044;8.716;2023-02-19T03:20:18;13.20;99.90
22544;DHT22;11438;52.044;8.716;2023-02-19T03:22:45;13.20;99.90
22544;DHT22;11438;52.044;8.716;2023-02-19T03:25:16;13.20;99.90
22544;DHT22;11438;52.044;8.716;2023-02-19T03:28:04;13.20;99.90
22544;DHT22;11438;52.044;8.716;2023-02-19T03:30:35;13.20;99.90
22544;DHT22;11438;52.044;8.716;2023-02-19T03:33:12;13.20;99.90
22544;DHT22;11438;52.044;8.716;2023-02-19T03:35:55;13.20;99.90
22544;DHT22;11438;52.044;8.716;2023-02-19T03:38:29;13.20;99.90
22544;DHT22;11438;52.044;8.716;2023-02-19T03:41:03;13.20;99.90
22544;DHT22;11438;52.044;8.716;2023-02-19T03:48:32;13.20;99.90
22544;DHT22;11438;52.044;8.716;2023-02-19T03:51:18;13.20;99.90
22544;DHT22;11438;52.044;8.716;2023-02-19T03:57:02;13.20;99.90
22544;DHT22;11438;52.044;8.716;2023-02-19T03:59:58;13.20;99.90
22544;DHT22;11438;52.044;8.716;2023-02-19T04:02:33;13.20;99.90
22544;DHT22;11438;52.044;8.716;2023-02-19T04:05:18;13.20;99.90
22544;DHT22;11438;52.044;8.716;2023-02-19T04:07:48;13.20;99.90
22544;DHT22;11438;52.044;8.716;2023-02-19T04:10:16;13.20;99.90
22544;DHT22;11438;52.044;8.716;2023-02-19T04:12:47;13.20;99.90
22544;DHT22;11438;52.044;8.716;2023-02-19T04:15:16;13.20;99.90
22544;DHT22;11438;52.044;8.716;2023-02-19T04:17:49;13.20;99.90
22544;DHT22;11438;52.044;8.716;2023-02-19T04:20:16;13.20;99.90
22544;DHT22;11438;52.044;8.716;2023-02-19T04:22:43;13.20;99.90
22544;DHT22;11438;52.044;8.716;2023-02-19T04:25:09;13.20;99.90
22544;DHT22;11438;52.044;8.716;2023-02-19T04:27:37;13.20;99.90
22544;DHT22;11438;52.044;8.716;2023-02-19T04:30:04;13.20;99.90
22544;DHT22;11438;52.044;8.716;2023-02-19T04:32:30;13.20;99.90
22544;DHT22;11438;52.044;8.716;2023-02-19T04:34:55;13.10;99.90
22544;DHT22;11438;52.044;8.716;2023-02-19T04:37:21;13.10;99.90
22544;DHT22;11438;52.044;8.716;2023-02-19T04:39:46;13.10;99.90
22544;DHT22;11438;52.044;8.716;2023-02-19T04:42:12;13.10;99.90
22544;DHT22;11438;52.044;8.716;2023-02-19T04:44:37;13.10;99.90
22544;DHT22;11438;52.044;8.716;2023-02-19T04:47:03;13.10;99.90
22544;DHT22;11438;52.044;8.716;2023-02-19T04:49:28;13.10;99.90
22544;DHT22;11438;52.044;8.716;2023-02-19T04:51:54;13.10;99.90
22544;DHT22;11438;52.044;8.716;2023-02-19T04:54:19;13.10;99.90
22544;DHT22;11438;52.044;8.716;2023-02-19T04:56:45;13.10;99.90
22544;DHT22;11438;52.044;8.716;2023-02-19T04:59:11;13.00;99.90
22544;DHT22;11438;52.044;8.716;2023-02-19T05:01:37;13.10;99.90
22544;DHT22;11438;52.044;8.716;2023-02-19T05:04:05;13.00;99.90
22544;DHT22;11438;52.044;8.716;2023-02-19T05:06:31;13.00;99.90
22544;DHT22;11438;52.044;8.716;2023-02-19T05:08:56;13.00;99.90
22544;DHT22;11438;52.044;8.716;2023-02-19T05:11:22;13.00;99.90
22544;DHT22;11438;52.044;8.716;2023-02-19T05:13:48;13.00;99.90
22544;DHT22;11438;52.044;8.716;2023-02-19T05:16:14;13.00;99.90
22544;DHT22;11438;52.044;8.716;2023-02-19T05:18:41;13.00;99.90
22544;DHT22;11438;52.044;8.716;2023-02-19T05:21:07;13.00;99.90
22544;DHT22;11438;52.044;8.716;2023-02-19T05:23:33;13.00;99.90
22544;DHT22;11438;52.044;8.716;2023-02-19T05:26:06;13.00;99.90
22544;DHT22;11438;52.044;8.716;2023-02-19T05:28:33;13.10;99.90
22544;DHT22;11438;52.044;8.716;2023-02-19T05:31:04;13.00;99.90
22544;DHT22;11438;52.044;8.716;2023-02-19T05:33:31;13.10;99.90
22544;DHT22;11438;52.044;8.716;2023-02-19T05:35:56;13.00;99.90
22544;DHT22;11438;52.044;8.716;2023-02-19T05:38:22;13.00;99.90
22544;DHT22;11438;52.044;8.716;2023-02-19T05:40:48;13.00;99.90
22544;DHT22;11438;52.044;8.716;2023-02-19T05:43:14;13.00;99.90
22544;DHT22;11438;52.044;8.716;2023-02-19T05:45:40;13.00;99.90
22544;DHT22;11438;52.044;8.716;2023-02-19T05:48:06;13.00;99.90
22544;DHT22;11438;52.044;8.716;2023-02-19T05:50:34;13.00;99.90
22544;DHT22;11438;52.044;8.716;2023-02-19T05:53:00;13.00;99.90
22544;DHT22;11438;52.044;8.716;2023-02-19T05:55:27;12.90;99.90
22544;DHT22;11438;52.044;8.716;2023-02-19T05:57:53;12.90;99.90
22544;DHT22;11438;52.044;8.716;2023-02-19T06:00:19;12.90;99.90
22544;DHT22;11438;52.044;8.716;2023-02-19T06:02:45;12.90;99.90
22544;DHT22;11438;52.044;8.716;2023-02-19T06:05:11;12.90;99.90
22544;DHT22;11438;52.044;8.716;2023-02-19T06:07:37;12.90;99.90
22544;DHT22;11438;52.044;8.716;2023-02-19T06:10:05;12.90;99.90
22544;DHT22;11438;52.044;8.716;2023-02-19T06:12:31;12.80;99.90
22544;DHT22;11438;52.044;8.716;2023-02-19T06:14:56;12.90;99.90
22544;DHT22;11438;52.044;8.716;2023-02-19T06:17:22;12.80;99.90
22544;DHT22;11438;52.044;8.716;2023-02-19T06:19:47;12.80;99.90
22544;DHT22;11438;52.044;8.716;2023-02-19T06:22:14;12.70;99.90
22544;DHT22;11438;52.044;8.716;2023-02-19T06:24:39;12.70;99.90
22544;DHT22;11438;52.044;8.716;2023-02-19T06:27:06;12.50;99.90
22544;DHT22;11438;52.044;8.716;2023-02-19T06:29:31;12.40;99.80
22544;DHT22;11438;52.044;8.716;2023-02-19T06:31:58;12.30;99.70
22544;DHT22;11438;52.044;8.716;2023-02-19T06:34:23;12.20;99.60
22544;DHT22;11438;52.044;8.716;2023-02-19T06:36:49;12.00;99.60
22544;DHT22;11438;52.044;8.716;2023-02-19T06:39:15;11.90;99.80
22544;DHT22;11438;52.044;8.716;2023-02-19T06:41:40;11.80;99.90
22544;DHT22;11438;52.044;8.716;2023-02-19T06:44:06;11.70;99.90
22544;DHT22;11438;52.044;8.716;2023-02-19T06:46:31;11.60;99.90
22544;DHT22;11438;52.044;8.716;2023-02-19T06:48:57;11.50;99.90
22544;DHT22;11438;52.044;8.716;2023-02-19T06:51:22;11.50;99.90
22544;DHT22;11438;52.044;8.716;2023-02-19T06:53:51;11.40;99.90
22544;DHT22;11438;52.044;8.716;2023-02-19T06:56:24;11.30;99.90
22544;DHT22;11438;52.044;8.716;2023-02-19T06:58:51;11.20;99.90
22544;DHT22;11438;52.044;8.716;2023-02-19T07:01:17;11.20;99.90
22544;DHT22;11438;52.044;8.716;2023-02-19T07:03:42;11.20;99.90
22544;DHT22;11438;52.044;8.716;2023-02-19T07:06:08;11.10;99.90
22544;DHT22;11438;52.044;8.716;2023-02-19T07:08:34;11.10;99.90
22544;DHT22;11438;52.044;8.716;2023-02-19T07:10:59;11.00;99.90
22544;DHT22;11438;52.044;8.716;2023-02-19T07:13:25;11.00;99.90
22544;DHT22;11438;52.044;8.716;2023-02-19T07:15:57;10.90;99.90
22544;DHT22;11438;52.044;8.716;2023-02-19T07:18:22;10.90;99.90
22544;DHT22;11438;52.044;8.716;2023-02-19T07:20:48;10.90;99.90
22544;DHT22;11438;52.044;8.716;2023-02-19T07:23:13;10.90;99.90
22544;DHT22;11438;52.044;8.716;2023-02-19T07:25:39;10.80;99.90
22544;DHT22;11438;52.044;8.716;2023-02-19T07:28:05;10.70;99.90
22544;DHT22;11438;52.044;8.716;2023-02-19T07:30:30;10.70;99.90
22544;DHT22;11438;52.044;8.716;2023-02-19T07:32:56;10.70;99.90
22544;DHT22;11438;52.044;8.716;2023-02-19T07:35:21;10.70;99.90
22544;DHT22;11438;52.044;8.716;2023-02-19T07:37:47;10.60;99.90
22544;DHT22;11438;52.044;8.716;2023-02-19T07:40:12;10.60;99.90
22544;DHT22;11438;52.044;8.716;2023-02-19T07:42:38;10.60;99.90
22544;DHT22;11438;52.044;8.716;2023-02-19T07:45:04;10.60;99.90
22544;DHT22;11438;52.044;8.716;2023-02-19T07:47:29;10.60;99.90
22544;DHT22;11438;52.044;8.716;2023-02-19T07:49:55;10.60;99.90
22544;DHT22;11438;52.044;8.716;2023-02-19T07:52:20;10.50;99.90
22544;DHT22;11438;52.044;8.716;2023-02-19T07:54:46;10.50;99.90
22544;DHT22;11438;52.044;8.716;2023-02-19T07:57:11;10.50;99.90
22544;DHT22;11438;52.044;8.716;2023-02-19T07:59:37;10.50;99.90
22544;DHT22;11438;52.044;8.716;2023-02-19T08:02:02;10.50;99.90
22544;DHT22;11438;52.044;8.716;2023-02-19T08:04:46;10.50;99.90
22544;DHT22;11438;52.044;8.716;2023-02-19T08:07:12;10.50;99.90
22544;DHT22;11438;52.044;8.716;2023-02-19T08:09:38;10.50;99.90
22544;DHT22;11438;52.044;8.716;2023-02-19T08:12:03;10.60;99.90
22544;DHT22;11438;52.044;8.716;2023-02-19T08:14:47;10.60;99.90
22544;DHT22;11438;52.044;8.716;2023-02-19T08:17:13;10.50;99.90
22544;DHT22;11438;52.044;8.716;2023-02-19T08:19:38;10.60;99.90
22544;DHT22;11438;52.044;8.716;2023-02-19T08:22:04;10.60;99.90
22544;DHT22;11438;52.044;8.716;2023-02-19T08:24:30;10.60;99.90
22544;DHT22;11438;52.044;8.716;2023-02-19T08:26:58;10.50;99.90
22544;DHT22;11438;52.044;8.716;2023-02-19T08:29:23;10.50;99.90
22544;DHT22;11438;52.044;8.716;2023-02-19T08:31:49;10.50;99.90
22544;DHT22;11438;52.044;8.716;2023-02-19T08:34:14;10.50;99.90
22544;DHT22;11438;52.044;8.716;2023-02-19T08:36:40;10.50;99.90
22544;DHT22;11438;52.044;8.716;2023-02-19T08:39:05;10.50;99.90
22544;DHT22;11438;52.044;8.716;2023-02-19T08:41:31;10.50;99.90
22544;DHT22;11438;52.044;8.716;2023-02-19T08:43:56;10.50;99.90
22544;DHT22;11438;52.044;8.716;2023-02-19T08:46:21;10.50;99.90
22544;DHT22;11438;52.044;8.716;2023-02-19T08:48:47;10.50;99.90
22544;DHT22;11438;52.044;8.716;2023-02-19T08:51:13;10.60;99.90
22544;DHT22;11438;52.044;8.716;2023-02-19T08:53:39;10.50;99.90
22544;DHT22;11438;52.044;8.716;2023-02-19T08:56:06;10.50;99.90
22544;DHT22;11438;52.044;8.716;2023-02-19T08:58:32;10.50;99.90
22544;DHT22;11438;52.044;8.716;2023-02-19T09:00:58;10.50;99.90
22544;DHT22;11438;52.044;8.716;2023-02-19T09:03:23;10.50;99.90
22544;DHT22;11438;52.044;8.716;2023-02-19T09:05:49;10.50;99.90
22544;DHT22;11438;52.044;8.716;2023-02-19T09:08:14;10.50;99.90
22544;DHT22;11438;52.044;8.716;2023-02-19T09:10:40;10.50;99.90
22544;DHT22;11438;52.044;8.716;2023-02-19T09:13:06;10.50;99.90
22544;DHT22;11438;52.044;8.716;2023-02-19T09:15:31;10.50;99.90
22544;DHT22;11438;52.044;8.716;2023-02-19T09:17:58;10.50;99.90
22544;DHT22;11438;52.044;8.716;2023-02-19T09:20:23;10.50;99.90
22544;DHT22;11438;52.044;8.716;2023-02-19T09:22:49;10.50;99.90
22544;DHT22;11438;52.044;8.716;2023-02-19T09:25:15;10.60;99.90
22544;DHT22;11438;52.044;8.716;2023-02-19T09:27:40;10.60;99.80
22544;DHT22;11438;52.044;8.716;2023-02-19T09:30:06;10.60;99.80
22544;DHT22;11438;52.044;8.716;2023-02-19T09:32:32;10.50;99.80
22544;DHT22;11438;52.044;8.716;2023-02-19T09:34:58;10.50;99.80
22544;DHT22;11438;52.044;8.716;2023-02-19T09:37:27;10.50;99.80
22544;DHT22;11438;52.044;8.716;2023-02-19T09:39:53;10.60;99.90
22544;DHT22;11438;52.044;8.716;2023-02-19T09:42:30;10.50;99.90
22544;DHT22;11438;52.044;8.716;2023-02-19T09:44:58;10.50;99.80
22544;DHT22;11438;52.044;8.716;2023-02-19T09:47:28;10.50;99.70
22544;DHT22;11438;52.044;8.716;2023-02-19T09:50:00;10.60;99.80
22544;DHT22;11438;52.044;8.716;2023-02-19T09:52:31;10.60;99.80
22544;DHT22;11438;52.044;8.716;2023-02-19T09:55:41;10.60;99.70
22544;DHT22;11438;52.044;8.716;2023-02-19T09:57:48;10.60;99.60
22544;DHT22;11438;52.044;8.716;2023-02-19T10:00:19;10.70;99.50
22544;DHT22;11438;52.044;8.716;2023-02-19T10:02:45;10.70;99.50
22544;DHT22;11438;52.044;8.716;2023-02-19T10:05:15;10.70;99.70
22544;DHT22;11438;52.044;8.716;2023-02-19T10:07:43;10.70;99.60
22544;DHT22;11438;52.044;8.716;2023-02-19T10:12:45;10.70;99.40
22544;DHT22;11438;52.044;8.716;2023-02-19T10:15:24;10.80;99.30
22544;DHT22;11438;52.044;8.716;2023-02-19T10:17:50;10.80;99.20
22544;DHT22;11438;52.044;8.716;2023-02-19T10:20:19;10.90;99.30
22544;DHT22;11438;52.044;8.716;2023-02-19T10:22:50;10.90;99.30
22544;DHT22;11438;52.044;8.716;2023-02-19T10:25:17;10.90;99.40
22544;DHT22;11438;52.044;8.716;2023-02-19T10:27:43;11.00;99.30
22544;DHT22;11438;52.044;8.716;2023-02-19T10:30:19;11.00;99.20
22544;DHT22;11438;52.044;8.716;2023-02-19T10:33:02;11.10;99.10
22544;DHT22;11438;52.044;8.716;2023-02-19T10:35:29;11.10;99.10
22544;DHT22;11438;52.044;8.716;2023-02-19T10:37:55;11.10;99.00
22544;DHT22;11438;52.044;8.716;2023-02-19T10:40:25;11.10;98.90
22544;DHT22;11438;52.044;8.716;2023-02-19T10:42:58;11.10;98.90
22544;DHT22;11438;52.044;8.716;2023-02-19T10:45:46;11.20;98.70
22544;DHT22;11438;52.044;8.716;2023-02-19T10:48:29;11.20;98.70
22544;DHT22;11438;52.044;8.716;2023-02-19T10:51:00;11.20;98.90
22544;DHT22;11438;52.044;8.716;2023-02-19T10:56:25;11.20;98.90
22544;DHT22;11438;52.044;8.716;2023-02-19T10:58:51;11.30;99.00
22544;DHT22;11438;52.044;8.716;2023-02-19T11:01:24;11.30;99.10
22544;DHT22;11438;52.044;8.716;2023-02-19T11:04:14;11.30;99.00
22544;DHT22;11438;52.044;8.716;2023-02-19T11:06:40;11.30;98.40
22544;DHT22;11438;52.044;8.716;2023-02-19T11:09:14;11.40;98.50
22544;DHT22;11438;52.044;8.716;2023-02-19T11:11:44;11.40;98.50
22544;DHT22;11438;52.044;8.716;2023-02-19T11:14:17;11.40;98.30
22544;DHT22;11438;52.044;8.716;2023-02-19T11:16:54;11.50;98.30
22544;DHT22;11438;52.044;8.716;2023-02-19T11:19:24;11.50;98.10
22544;DHT22;11438;52.044;8.716;2023-02-19T11:21:51;11.50;98.10
22544;DHT22;11438;52.044;8.716;2023-02-19T11:24:35;11.60;98.00
22544;DHT22;11438;52.044;8.716;2023-02-19T11:27:04;11.60;97.90
22544;DHT22;11438;52.044;8.716;2023-02-19T11:29:30;11.70;97.90
22544;DHT22;11438;52.044;8.716;2023-02-19T11:34:44;11.70;97.70
22544;DHT22;11438;52.044;8.716;2023-02-19T11:37:15;11.80;97.70
22544;DHT22;11438;52.044;8.716;2023-02-19T11:39:46;11.80;97.60
22544;DHT22;11438;52.044;8.716;2023-02-19T11:45:12;11.90;97.60
22544;DHT22;11438;52.044;8.716;2023-02-19T11:53:26;12.00;97.20
22544;DHT22;11438;52.044;8.716;2023-02-19T12:07:26;12.30;96.90
22544;DHT22;11438;52.044;8.716;2023-02-19T12:12:55;12.30;96.50
22544;DHT22;11438;52.044;8.716;2023-02-19T12:18:38;12.30;96.60
22544;DHT22;11438;52.044;8.716;2023-02-19T12:35:39;12.40;95.80
22544;DHT22;11438;52.044;8.716;2023-02-19T12:38:34;12.50;95.60
22544;DHT22;11438;52.044;8.716;2023-02-19T12:43:57;12.50;95.50
22544;DHT22;11438;52.044;8.716;2023-02-19T12:46:32;12.50;95.60
22544;DHT22;11438;52.044;8.716;2023-02-19T12:51:48;12.50;95.80
22544;DHT22;11438;52.044;8.716;2023-02-19T12:54:25;12.50;95.50
22544;DHT22;11438;52.044;8.716;2023-02-19T13:02:49;12.40;95.20
22544;DHT22;11438;52.044;8.716;2023-02-19T13:05:25;12.40;95.30
22544;DHT22;11438;52.044;8.716;2023-02-19T13:08:18;12.30;95.30
22544;DHT22;11438;52.044;8.716;2023-02-19T13:10:49;12.30;94.80
22544;DHT22;11438;52.044;8.716;2023-02-19T13:13:30;12.20;94.90
22544;DHT22;11438;52.044;8.716;2023-02-19T13:16:07;12.20;94.90
22544;DHT22;11438;52.044;8.716;2023-02-19T13:18:57;12.20;94.70
22544;DHT22;11438;52.044;8.716;2023-02-19T13:21:27;12.20;94.90
22544;DHT22;11438;52.044;8.716;2023-02-19T13:24:27;12.10;94.80
22544;DHT22;11438;52.044;8.716;2023-02-19T13:27:15;12.10;94.40
22544;DHT22;11438;52.044;8.716;2023-02-19T13:38:17;12.00;94.70
22544;DHT22;11438;52.044;8.716;2023-02-19T13:40:56;12.00;95.00
22544;DHT22;11438;52.044;8.716;2023-02-19T13:43:29;12.00;94.90
22544;DHT22;11438;52.044;8.716;2023-02-19T13:46:05;12.00;94.90
22544;DHT22;11438;52.044;8.716;2023-02-19T13:48:34;12.00;95.00
22544;DHT22;11438;52.044;8.716;2023-02-19T14:04:39;12.30;95.00
22544;DHT22;11438;52.044;8.716;2023-02-19T14:12:04;12.40;94.30
22544;DHT22;11438;52.044;8.716;2023-02-19T14:14:49;12.40;94.20
22544;DHT22;11438;52.044;8.716;2023-02-19T14:17:37;12.40;93.90
22544;DHT22;11438;52.044;8.716;2023-02-19T14:25:32;12.40;93.90
22544;DHT22;11438;52.044;8.716;2023-02-19T14:30:59;12.40;93.80
22544;DHT22;11438;52.044;8.716;2023-02-19T14:33:35;12.40;93.70
22544;DHT22;11438;52.044;8.716;2023-02-19T14:41:24;12.40;93.60
22544;DHT22;11438;52.044;8.716;2023-02-19T14:43:52;12.30;93.80
22544;DHT22;11438;52.044;8.716;2023-02-19T14:48:49;12.30;93.50
22544;DHT22;11438;52.044;8.716;2023-02-19T14:53:54;12.30;93.80
22544;DHT22;11438;52.044;8.716;2023-02-19T14:56:30;12.30;94.10
22544;DHT22;11438;52.044;8.716;2023-02-19T15:01:37;12.30;93.30
22544;DHT22;11438;52.044;8.716;2023-02-19T15:04:04;12.20;93.50
22544;DHT22;11438;52.044;8.716;2023-02-19T15:06:32;12.20;93.60
22544;DHT22;11438;52.044;8.716;2023-02-19T15:09:04;12.20;93.70
22544;DHT22;11438;52.044;8.716;2023-02-19T15:11:30;12.20;93.60
22544;DHT22;11438;52.044;8.716;2023-02-19T15:14:04;12.20;93.50
22544;DHT22;11438;52.044;8.716;2023-02-19T15:16:32;12.20;93.50
22544;DHT22;11438;52.044;8.716;2023-02-19T15:18:59;12.20;93.50
22544;DHT22;11438;52.044;8.716;2023-02-19T15:21:30;12.20;93.40
22544;DHT22;11438;52.044;8.716;2023-02-19T15:23:59;12.20;93.90
22544;DHT22;11438;52.044;8.716;2023-02-19T15:26:40;12.10;93.90
22544;DHT22;11438;52.044;8.716;2023-02-19T15:29:12;12.20;94.10
22544;DHT22;11438;52.044;8.716;2023-02-19T15:31:46;12.20;93.90
22544;DHT22;11438;52.044;8.716;2023-02-19T15:34:23;12.20;94.00
22544;DHT22;11438;52.044;8.716;2023-02-19T15:36:52;12.20;93.70
22544;DHT22;11438;52.044;8.716;2023-02-19T15:39:40;12.20;94.00
22544;DHT22;11438;52.044;8.716;2023-02-19T15:42:09;12.20;93.80
22544;DHT22;11438;52.044;8.716;2023-02-19T15:44:46;12.20;94.10
22544;DHT22;11438;52.044;8.716;2023-02-19T15:50:14;12.10;93.90
22544;DHT22;11438;52.044;8.716;2023-02-19T15:58:22;12.00;93.90
22544;DHT22;11438;52.044;8.716;2023-02-19T16:01:02;12.10;93.90
22544;DHT22;11438;52.044;8.716;2023-02-19T16:03:30;12.00;94.10
22544;DHT22;11438;52.044;8.716;2023-02-19T16:06:17;12.00;94.20
22544;DHT22;11438;52.044;8.716;2023-02-19T16:11:28;12.00;94.20
22544;DHT22;11438;52.044;8.716;2023-02-19T16:16:52;12.00;94.40
22544;DHT22;11438;52.044;8.716;2023-02-19T16:19:27;12.00;94.60
22544;DHT22;11438;52.044;8.716;2023-02-19T16:21:53;11.90;94.60
22544;DHT22;11438;52.044;8.716;2023-02-19T16:24:31;11.90;94.60
22544;DHT22;11438;52.044;8.716;2023-02-19T16:26:58;11.90;94.40
22544;DHT22;11438;52.044;8.716;2023-02-19T16:29:26;11.90;94.40
22544;DHT22;11438;52.044;8.716;2023-02-19T16:31:55;11.90;94.20
22544;DHT22;11438;52.044;8.716;2023-02-19T16:34:38;11.90;94.20
22544;DHT22;11438;52.044;8.716;2023-02-19T16:45:15;11.80;94.40
22544;DHT22;11438;52.044;8.716;2023-02-19T16:47:41;11.80;94.40
22544;DHT22;11438;52.044;8.716;2023-02-19T16:50:15;11.80;94.60
22544;DHT22;11438;52.044;8.716;2023-02-19T16:52:55;11.70;94.80
22544;DHT22;11438;52.044;8.716;2023-02-19T16:55:21;11.70;94.80
22544;DHT22;11438;52.044;8.716;2023-02-19T16:57:47;11.70;94.90
22544;DHT22;11438;52.044;8.716;2023-02-19T17:02:45;11.70;95.20
22544;DHT22;11438;52.044;8.716;2023-02-19T17:05:11;11.70;95.20
22544;DHT22;11438;52.044;8.716;2023-02-19T17:07:37;11.70;95.30
22544;DHT22;11438;52.044;8.716;2023-02-19T17:10:02;11.70;95.30
22544;DHT22;11438;52.044;8.716;2023-02-19T17:12:28;11.70;95.10
22544;DHT22;11438;52.044;8.716;2023-02-19T17:14:54;11.70;95.10
22544;DHT22;11438;52.044;8.716;2023-02-19T17:17:19;11.70;95.10
22544;DHT22;11438;52.044;8.716;2023-02-19T17:19:45;11.70;95.10
22544;DHT22;11438;52.044;8.716;2023-02-19T17:22:10;11.70;95.00
22544;DHT22;11438;52.044;8.716;2023-02-19T17:24:41;11.60;95.00
22544;DHT22;11438;52.044;8.716;2023-02-19T17:27:09;11.60;95.10
22544;DHT22;11438;52.044;8.716;2023-02-19T17:29:35;11.60;95.20
22544;DHT22;11438;52.044;8.716;2023-02-19T17:32:01;11.60;95.70
22544;DHT22;11438;52.044;8.716;2023-02-19T17:34:27;11.60;95.40
22544;DHT22;11438;52.044;8.716;2023-02-19T17:36:52;11.60;95.50
22544;DHT22;11438;52.044;8.716;2023-02-19T17:39:18;11.60;95.50
22544;DHT22;11438;52.044;8.716;2023-02-19T17:41:44;11.60;95.60
22544;DHT22;11438;52.044;8.716;2023-02-19T17:44:10;11.60;95.70
22544;DHT22;11438;52.044;8.716;2023-02-19T17:46:36;11.60;95.80
22544;DHT22;11438;52.044;8.716;2023-02-19T17:49:02;11.60;95.70
22544;DHT22;11438;52.044;8.716;2023-02-19T17:51:28;11.60;95.50
22544;DHT22;11438;52.044;8.716;2023-02-19T17:53:53;11.60;95.30
22544;DHT22;11438;52.044;8.716;2023-02-19T17:56:21;11.60;95.40
22544;DHT22;11438;52.044;8.716;2023-02-19T17:58:48;11.60;95.60
22544;DHT22;11438;52.044;8.716;2023-02-19T18:01:13;11.60;95.60
22544;DHT22;11438;52.044;8.716;2023-02-19T18:03:39;11.60;95.60
22544;DHT22;11438;52.044;8.716;2023-02-19T18:06:05;11.60;95.70
22544;DHT22;11438;52.044;8.716;2023-02-19T18:08:30;11.60;95.70
22544;DHT22;11438;52.044;8.716;2023-02-19T18:10:56;11.60;95.80
22544;DHT22;11438;52.044;8.716;2023-02-19T18:13:21;11.60;95.90
22544;DHT22;11438;52.044;8.716;2023-02-19T18:15:47;11.60;96.00